sensor_id;sensor_type;location;lat;lon;timestamp;P1;durP1;ratioP1;P2;durP2;ratioP2
42104;SDS011;61464;51.472;5.712;2022-09-21T00:01:30;16.13;;;5.88;;
42104;SDS011;61464;51.472;5.712;2022-09-21T00:03:57;14.83;;;5.33;;
42104;SDS011;61464;51.472;5.712;2022-09-21T00:06:26;14.88;;;5.70;;
42104;SDS011;61464;51.472;5.712;2022-09-21T00:08:57;13.75;;;5.63;;
42104;SDS011;61464;51.472;5.712;2022-09-21T00:11:24;11.13;;;5.45;;
42104;SDS011;61464;51.472;5.712;2022-09-21T00:13:54;13.80;;;6.05;;
42104;SDS011;61464;51.472;5.712;2022-09-21T00:16:26;14.52;;;5.80;;
42104;SDS011;61464;51.472;5.712;2022-09-21T00:18:53;9.32;;;5.15;;
42104;SDS011;61464;51.472;5.712;2022-09-21T00:21:19;12.50;;;5.65;;
42104;SDS011;61464;51.472;5.712;2022-09-21T00:23:45;15.40;;;6.20;;
42104;SDS011;61464;51.472;5.712;2022-09-21T00:26:16;10.63;;;5.50;;
42104;SDS011;61464;51.472;5.712;2022-09-21T00:28:51;14.20;;;5.25;;
42104;SDS011;61464;51.472;5.712;2022-09-21T00:31:20;11.18;;;5.05;;
42104;SDS011;61464;51.472;5.712;2022-09-21T00:33:47;12.38;;;5.57;;
42104;SDS011;61464;51.472;5.712;2022-09-21T00:36:14;11.68;;;5.65;;
42104;SDS011;61464;51.472;5.712;2022-09-21T00:38:44;10.88;;;5.40;;
42104;SDS011;61464;51.472;5.712;2022-09-21T00:41:13;16.05;;;5.95;;
42104;SDS011;61464;51.472;5.712;2022-09-21T00:43:41;13.07;;;6.18;;
42104;SDS011;61464;51.472;5.712;2022-09-21T00:46:30;10.05;;;6.03;;
42104;SDS011;61464;51.472;5.712;2022-09-21T00:48:56;10.40;;;6.00;;
42104;SDS011;61464;51.472;5.712;2022-09-21T00:51:22;12.73;;;5.95;;
42104;SDS011;61464;51.472;5.712;2022-09-21T00:53:50;9.57;;;6.68;;
42104;SDS011;61464;51.472;5.712;2022-09-21T00:56:23;11.68;;;6.18;;
42104;SDS011;61464;51.472;5.712;2022-09-21T00:58:50;11.82;;;6.13;;
42104;SDS011;61464;51.472;5.712;2022-09-21T01:01:18;12.73;;;5.97;;
42104;SDS011;61464;51.472;5.712;2022-09-21T01:03:45;11.77;;;5.60;;
42104;SDS011;61464;51.472;5.712;2022-09-21T01:06:14;13.30;;;6.43;;
42104;SDS011;61464;51.472;5.712;2022-09-21T01:08:43;11.23;;;6.57;;
42104;SDS011;61464;51.472;5.712;2022-09-21T01:16:55;10.23;;;6.05;;
42104;SDS011;61464;51.472;5.712;2022-09-21T01:31:23;12.52;;;6.18;;
42104;SDS011;61464;51.472;5.712;2022-09-21T01:33:57;16.20;;;8.10;;
42104;SDS011;61464;51.472;5.712;2022-09-21T01:36:30;12.00;;;6.78;;
42104;SDS011;61464;51.472;5.712;2022-09-21T01:39:01;12.57;;;6.53;;
42104;SDS011;61464;51.472;5.712;2022-09-21T01:41:36;21.85;;;6.50;;
42104;SDS011;61464;51.472;5.712;2022-09-21T01:44:06;12.93;;;6.50;;
42104;SDS011;61464;51.472;5.712;2022-09-21T01:46:38;15.10;;;7.03;;
42104;SDS011;61464;51.472;5.712;2022-09-21T01:49:12;13.93;;;7.00;;
42104;SDS011;61464;51.472;5.712;2022-09-21T01:51:50;13.27;;;7.00;;
42104;SDS011;61464;51.472;5.712;2022-09-21T01:54:27;17.70;;;7.30;;
42104;SDS011;61464;51.472;5.712;2022-09-21T01:57:11;13.45;;;7.03;;
42104;SDS011;61464;51.472;5.712;2022-09-21T02:00:02;13.02;;;7.32;;
42104;SDS011;61464;51.472;5.712;2022-09-21T02:05:18;15.27;;;7.03;;
42104;SDS011;61464;51.472;5.712;2022-09-21T02:07:46;15.13;;;7.28;;
42104;SDS011;61464;51.472;5.712;2022-09-21T02:10:16;11.82;;;7.13;;
42104;SDS011;61464;51.472;5.712;2022-09-21T02:13:07;12.75;;;6.88;;
42104;SDS011;61464;51.472;5.712;2022-09-21T02:21:18;11.73;;;6.97;;
42104;SDS011;61464;51.472;5.712;2022-09-21T02:24:02;14.02;;;6.70;;
42104;SDS011;61464;51.472;5.712;2022-09-21T02:26:58;16.42;;;7.18;;
42104;SDS011;61464;51.472;5.712;2022-09-21T02:36:00;13.23;;;7.07;;
42104;SDS011;61464;51.472;5.712;2022-09-21T02:38:57;16.45;;;8.35;;
42104;SDS011;61464;51.472;5.712;2022-09-21T02:44:40;16.98;;;8.18;;
42104;SDS011;61464;51.472;5.712;2022-09-21T02:47:16;19.02;;;8.20;;
42104;SDS011;61464;51.472;5.712;2022-09-21T02:49:52;18.23;;;7.90;;
42104;SDS011;61464;51.472;5.712;2022-09-21T02:52:23;13.82;;;7.63;;
42104;SDS011;61464;51.472;5.712;2022-09-21T02:54:51;12.88;;;8.27;;
42104;SDS011;61464;51.472;5.712;2022-09-21T02:57:19;15.07;;;7.90;;
42104;SDS011;61464;51.472;5.712;2022-09-21T02:59:47;15.80;;;8.27;;
42104;SDS011;61464;51.472;5.712;2022-09-21T03:02:14;14.70;;;8.95;;
42104;SDS011;61464;51.472;5.712;2022-09-21T03:04:41;14.57;;;8.02;;
42104;SDS011;61464;51.472;5.712;2022-09-21T03:07:17;16.55;;;7.90;;
42104;SDS011;61464;51.472;5.712;2022-09-21T03:09:42;17.63;;;8.65;;
42104;SDS011;61464;51.472;5.712;2022-09-21T03:12:09;13.40;;;8.15;;
42104;SDS011;61464;51.472;5.712;2022-09-21T03:14:35;17.63;;;8.20;;
42104;SDS011;61464;51.472;5.712;2022-09-21T03:17:00;15.75;;;8.20;;
42104;SDS011;61464;51.472;5.712;2022-09-21T03:19:26;16.73;;;8.13;;
42104;SDS011;61464;51.472;5.712;2022-09-21T03:21:53;14.48;;;7.75;;
42104;SDS011;61464;51.472;5.712;2022-09-21T03:24:19;15.88;;;8.43;;
42104;SDS011;61464;51.472;5.712;2022-09-21T03:29:30;10.60;;;7.00;;
42104;SDS011;61464;51.472;5.712;2022-09-21T03:31:56;12.05;;;7.38;;
42104;SDS011;61464;51.472;5.712;2022-09-21T03:34:21;12.65;;;7.68;;
42104;SDS011;61464;51.472;5.712;2022-09-21T03:36:47;11.98;;;7.07;;
42104;SDS011;61464;51.472;5.712;2022-09-21T03:39:13;11.85;;;7.25;;
42104;SDS011;61464;51.472;5.712;2022-09-21T03:41:39;14.48;;;7.65;;
42104;SDS011;61464;51.472;5.712;2022-09-21T03:44:05;12.48;;;7.53;;
42104;SDS011;61464;51.472;5.712;2022-09-21T03:46:31;13.73;;;7.25;;
42104;SDS011;61464;51.472;5.712;2022-09-21T03:48:59;14.52;;;7.80;;
42104;SDS011;61464;51.472;5.712;2022-09-21T03:51:27;13.88;;;7.45;;
42104;SDS011;61464;51.472;5.712;2022-09-21T03:53:55;13.18;;;8.35;;
42104;SDS011;61464;51.472;5.712;2022-09-21T03:56:21;15.90;;;8.23;;
42104;SDS011;61464;51.472;5.712;2022-09-21T03:58:47;15.52;;;8.20;;
42104;SDS011;61464;51.472;5.712;2022-09-21T04:01:13;10.80;;;7.53;;
42104;SDS011;61464;51.472;5.712;2022-09-21T04:03:39;15.05;;;8.10;;
42104;SDS011;61464;51.472;5.712;2022-09-21T04:06:08;14.00;;;7.40;;
42104;SDS011;61464;51.472;5.712;2022-09-21T04:08:35;16.05;;;7.45;;
42104;SDS011;61464;51.472;5.712;2022-09-21T04:11:08;12.18;;;8.00;;
42104;SDS011;61464;51.472;5.712;2022-09-21T04:13:41;17.13;;;8.00;;
42104;SDS011;61464;51.472;5.712;2022-09-21T04:16:08;18.50;;;8.18;;
42104;SDS011;61464;51.472;5.712;2022-09-21T04:18:35;16.58;;;7.32;;
42104;SDS011;61464;51.472;5.712;2022-09-21T04:21:02;17.73;;;8.38;;
42104;SDS011;61464;51.472;5.712;2022-09-21T04:23:30;13.40;;;8.43;;
42104;SDS011;61464;51.472;5.712;2022-09-21T04:25:56;15.07;;;8.75;;
42104;SDS011;61464;51.472;5.712;2022-09-21T04:28:22;15.73;;;8.50;;
42104;SDS011;61464;51.472;5.712;2022-09-21T04:30:51;14.15;;;8.40;;
42104;SDS011;61464;51.472;5.712;2022-09-21T04:33:18;12.70;;;8.07;;
42104;SDS011;61464;51.472;5.712;2022-09-21T04:35:44;18.08;;;8.38;;
42104;SDS011;61464;51.472;5.712;2022-09-21T04:38:10;17.30;;;8.90;;
42104;SDS011;61464;51.472;5.712;2022-09-21T04:40:37;13.48;;;7.70;;
42104;SDS011;61464;51.472;5.712;2022-09-21T04:43:03;14.57;;;7.80;;
42104;SDS011;61464;51.472;5.712;2022-09-21T04:45:30;16.63;;;8.43;;
42104;SDS011;61464;51.472;5.712;2022-09-21T04:47:56;17.45;;;9.27;;
42104;SDS011;61464;51.472;5.712;2022-09-21T04:50:22;15.23;;;9.15;;
42104;SDS011;61464;51.472;5.712;2022-09-21T04:52:47;18.63;;;8.90;;
42104;SDS011;61464;51.472;5.712;2022-09-21T04:55:13;19.25;;;9.20;;
42104;SDS011;61464;51.472;5.712;2022-09-21T04:57:39;16.25;;;8.93;;
42104;SDS011;61464;51.472;5.712;2022-09-21T05:00:05;15.55;;;8.57;;
42104;SDS011;61464;51.472;5.712;2022-09-21T05:02:32;14.27;;;8.50;;
42104;SDS011;61464;51.472;5.712;2022-09-21T05:04:57;21.88;;;8.45;;
42104;SDS011;61464;51.472;5.712;2022-09-21T05:07:23;17.70;;;7.90;;
42104;SDS011;61464;51.472;5.712;2022-09-21T05:09:49;16.52;;;7.95;;
42104;SDS011;61464;51.472;5.712;2022-09-21T05:12:27;17.75;;;9.40;;
42104;SDS011;61464;51.472;5.712;2022-09-21T05:14:54;16.95;;;9.00;;
42104;SDS011;61464;51.472;5.712;2022-09-21T05:17:20;18.45;;;8.88;;
42104;SDS011;61464;51.472;5.712;2022-09-21T05:19:50;14.13;;;9.32;;
42104;SDS011;61464;51.472;5.712;2022-09-21T05:22:17;20.42;;;10.13;;
42104;SDS011;61464;51.472;5.712;2022-09-21T05:24:44;18.35;;;9.80;;
42104;SDS011;61464;51.472;5.712;2022-09-21T05:27:10;20.02;;;10.70;;
42104;SDS011;61464;51.472;5.712;2022-09-21T05:29:37;24.33;;;10.32;;
42104;SDS011;61464;51.472;5.712;2022-09-21T05:32:12;28.08;;;9.55;;
42104;SDS011;61464;51.472;5.712;2022-09-21T05:35:57;16.95;;;9.95;;
42104;SDS011;61464;51.472;5.712;2022-09-21T05:38:14;20.67;;;9.73;;
42104;SDS011;61464;51.472;5.712;2022-09-21T05:40:44;17.50;;;9.82;;
42104;SDS011;61464;51.472;5.712;2022-09-21T05:43:14;22.20;;;10.40;;
42104;SDS011;61464;51.472;5.712;2022-09-21T05:45:45;23.13;;;10.73;;
42104;SDS011;61464;51.472;5.712;2022-09-21T05:48:18;16.58;;;10.27;;
42104;SDS011;61464;51.472;5.712;2022-09-21T05:53:59;21.05;;;10.88;;
42104;SDS011;61464;51.472;5.712;2022-09-21T05:56:48;16.55;;;10.38;;
42104;SDS011;61464;51.472;5.712;2022-09-21T05:59:42;20.08;;;10.40;;
42104;SDS011;61464;51.472;5.712;2022-09-21T06:05:19;16.30;;;9.57;;
42104;SDS011;61464;51.472;5.712;2022-09-21T06:07:45;17.00;;;10.68;;
42104;SDS011;61464;51.472;5.712;2022-09-21T06:10:11;22.15;;;11.25;;
42104;SDS011;61464;51.472;5.712;2022-09-21T06:12:38;19.70;;;10.02;;
42104;SDS011;61464;51.472;5.712;2022-09-21T06:15:04;22.00;;;11.35;;
42104;SDS011;61464;51.472;5.712;2022-09-21T06:17:32;17.77;;;10.50;;
42104;SDS011;61464;51.472;5.712;2022-09-21T06:19:58;20.33;;;11.13;;
42104;SDS011;61464;51.472;5.712;2022-09-21T06:22:23;24.60;;;10.88;;
42104;SDS011;61464;51.472;5.712;2022-09-21T06:24:49;22.23;;;11.57;;
42104;SDS011;61464;51.472;5.712;2022-09-21T06:27:15;25.92;;;12.60;;
42104;SDS011;61464;51.472;5.712;2022-09-21T06:29:41;23.88;;;11.75;;
42104;SDS011;61464;51.472;5.712;2022-09-21T06:32:06;20.67;;;13.52;;
42104;SDS011;61464;51.472;5.712;2022-09-21T06:34:32;27.23;;;13.75;;
42104;SDS011;61464;51.472;5.712;2022-09-21T06:36:58;22.35;;;14.13;;
42104;SDS011;61464;51.472;5.712;2022-09-21T06:39:24;22.08;;;14.23;;
42104;SDS011;61464;51.472;5.712;2022-09-21T06:41:50;24.33;;;15.20;;
42104;SDS011;61464;51.472;5.712;2022-09-21T06:44:16;24.13;;;15.75;;
42104;SDS011;61464;51.472;5.712;2022-09-21T06:46:42;25.23;;;16.88;;
42104;SDS011;61464;51.472;5.712;2022-09-21T06:49:08;26.67;;;15.27;;
42104;SDS011;61464;51.472;5.712;2022-09-21T06:51:33;18.33;;;13.63;;
42104;SDS011;61464;51.472;5.712;2022-09-21T06:54:00;21.80;;;12.60;;
42104;SDS011;61464;51.472;5.712;2022-09-21T06:56:26;19.42;;;12.43;;
42104;SDS011;61464;51.472;5.712;2022-09-21T06:58:52;18.70;;;13.57;;
42104;SDS011;61464;51.472;5.712;2022-09-21T07:01:18;25.85;;;14.73;;
42104;SDS011;61464;51.472;5.712;2022-09-21T07:03:47;22.80;;;14.20;;
42104;SDS011;61464;51.472;5.712;2022-09-21T07:06:15;22.85;;;13.25;;
42104;SDS011;61464;51.472;5.712;2022-09-21T07:08:42;23.77;;;15.48;;
42104;SDS011;61464;51.472;5.712;2022-09-21T07:11:08;19.30;;;13.80;;
42104;SDS011;61464;51.472;5.712;2022-09-21T07:13:35;19.42;;;14.32;;
42104;SDS011;61464;51.472;5.712;2022-09-21T07:16:02;24.42;;;14.60;;
42104;SDS011;61464;51.472;5.712;2022-09-21T07:18:33;20.10;;;15.15;;
42104;SDS011;61464;51.472;5.712;2022-09-21T07:21:04;20.63;;;14.63;;
42104;SDS011;61464;51.472;5.712;2022-09-21T07:23:32;23.27;;;13.70;;
42104;SDS011;61464;51.472;5.712;2022-09-21T07:26:02;24.40;;;14.30;;
42104;SDS011;61464;51.472;5.712;2022-09-21T07:28:31;23.08;;;14.35;;
42104;SDS011;61464;51.472;5.712;2022-09-21T07:30:57;22.17;;;14.85;;
42104;SDS011;61464;51.472;5.712;2022-09-21T07:33:29;19.38;;;13.10;;
42104;SDS011;61464;51.472;5.712;2022-09-21T07:35:57;20.83;;;13.55;;
42104;SDS011;61464;51.472;5.712;2022-09-21T07:38:24;21.73;;;12.98;;
42104;SDS011;61464;51.472;5.712;2022-09-21T07:40:51;20.13;;;13.70;;
42104;SDS011;61464;51.472;5.712;2022-09-21T07:43:17;19.65;;;11.88;;
42104;SDS011;61464;51.472;5.712;2022-09-21T07:45:50;20.02;;;12.75;;
42104;SDS011;61464;51.472;5.712;2022-09-21T07:48:21;18.70;;;12.00;;
42104;SDS011;61464;51.472;5.712;2022-09-21T07:50:47;21.45;;;12.80;;
42104;SDS011;61464;51.472;5.712;2022-09-21T07:53:13;20.42;;;10.95;;
42104;SDS011;61464;51.472;5.712;2022-09-21T07:55:43;22.42;;;10.70;;
42104;SDS011;61464;51.472;5.712;2022-09-21T07:58:09;18.63;;;10.45;;
42104;SDS011;61464;51.472;5.712;2022-09-21T08:00:53;17.80;;;11.45;;
42104;SDS011;61464;51.472;5.712;2022-09-21T08:03:19;22.90;;;11.77;;
42104;SDS011;61464;51.472;5.712;2022-09-21T08:05:45;18.50;;;11.50;;
42104;SDS011;61464;51.472;5.712;2022-09-21T08:08:11;16.50;;;10.30;;
42104;SDS011;61464;51.472;5.712;2022-09-21T08:10:37;20.35;;;9.98;;
42104;SDS011;61464;51.472;5.712;2022-09-21T08:13:03;18.33;;;9.82;;
42104;SDS011;61464;51.472;5.712;2022-09-21T08:15:29;18.67;;;9.40;;
42104;SDS011;61464;51.472;5.712;2022-09-21T08:17:55;14.20;;;8.95;;
42104;SDS011;61464;51.472;5.712;2022-09-21T08:20:22;14.45;;;8.32;;
42104;SDS011;61464;51.472;5.712;2022-09-21T08:22:49;14.70;;;8.80;;
42104;SDS011;61464;51.472;5.712;2022-09-21T08:25:17;16.00;;;9.35;;
42104;SDS011;61464;51.472;5.712;2022-09-21T08:27:43;45.15;;;8.27;;
42104;SDS011;61464;51.472;5.712;2022-09-21T08:30:09;9.35;;;5.80;;
42104;SDS011;61464;51.472;5.712;2022-09-21T08:32:37;15.75;;;9.07;;
42104;SDS011;61464;51.472;5.712;2022-09-21T08:35:04;14.82;;;7.30;;
42104;SDS011;61464;51.472;5.712;2022-09-21T08:37:32;9.68;;;6.25;;
42104;SDS011;61464;51.472;5.712;2022-09-21T08:40:00;13.75;;;6.63;;
42104;SDS011;61464;51.472;5.712;2022-09-21T08:45:33;11.15;;;6.78;;
42104;SDS011;61464;51.472;5.712;2022-09-21T08:51:12;9.43;;;6.03;;
42104;SDS011;61464;51.472;5.712;2022-09-21T08:53:46;15.40;;;6.03;;
42104;SDS011;61464;51.472;5.712;2022-09-21T08:56:16;15.23;;;4.45;;
42104;SDS011;61464;51.472;5.712;2022-09-21T08:58:42;7.40;;;3.90;;
42104;SDS011;61464;51.472;5.712;2022-09-21T09:06:51;9.57;;;4.35;;
42104;SDS011;61464;51.472;5.712;2022-09-21T09:12:31;8.05;;;3.50;;
42104;SDS011;61464;51.472;5.712;2022-09-21T09:18:52;9.70;;;3.20;;
42104;SDS011;61464;51.472;5.712;2022-09-21T09:21:28;7.53;;;3.22;;
42104;SDS011;61464;51.472;5.712;2022-09-21T09:24:04;10.07;;;3.10;;
42104;SDS011;61464;51.472;5.712;2022-09-21T09:26:40;7.97;;;2.67;;
42104;SDS011;61464;51.472;5.712;2022-09-21T09:35:43;8.05;;;2.72;;
42104;SDS011;61464;51.472;5.712;2022-09-21T09:38:24;8.55;;;2.67;;
42104;SDS011;61464;51.472;5.712;2022-09-21T09:46:35;10.00;;;2.85;;
42104;SDS011;61464;51.472;5.712;2022-09-21T09:54:12;8.10;;;3.25;;
42104;SDS011;61464;51.472;5.712;2022-09-21T09:56:42;9.18;;;2.97;;
42104;SDS011;61464;51.472;5.712;2022-09-21T09:59:10;7.57;;;3.33;;
42104;SDS011;61464;51.472;5.712;2022-09-21T10:02:02;9.18;;;2.35;;
42104;SDS011;61464;51.472;5.712;2022-09-21T10:04:53;9.40;;;2.72;;
42104;SDS011;61464;51.472;5.712;2022-09-21T10:10:49;7.05;;;2.80;;
42104;SDS011;61464;51.472;5.712;2022-09-21T10:12:53;5.00;;;1.70;;
42104;SDS011;61464;51.472;5.712;2022-09-21T10:15:26;5.97;;;1.67;;
42104;SDS011;61464;51.472;5.712;2022-09-21T10:21:04;4.00;;;2.10;;
42104;SDS011;61464;51.472;5.712;2022-09-21T10:23:31;4.63;;;2.15;;
42104;SDS011;61464;51.472;5.712;2022-09-21T10:26:01;5.10;;;1.60;;
42104;SDS011;61464;51.472;5.712;2022-09-21T10:28:37;6.50;;;1.75;;
42104;SDS011;61464;51.472;5.712;2022-09-21T10:31:30;7.88;;;1.75;;
42104;SDS011;61464;51.472;5.712;2022-09-21T10:36:38;8.88;;;1.90;;
42104;SDS011;61464;51.472;5.712;2022-09-21T10:42:09;3.53;;;1.42;;
42104;SDS011;61464;51.472;5.712;2022-09-21T10:44:49;7.40;;;1.73;;
42104;SDS011;61464;51.472;5.712;2022-09-21T10:50:24;5.75;;;1.52;;
42104;SDS011;61464;51.472;5.712;2022-09-21T10:56:13;7.63;;;1.70;;
42104;SDS011;61464;51.472;5.712;2022-09-21T10:58:39;4.22;;;1.55;;
42104;SDS011;61464;51.472;5.712;2022-09-21T11:01:26;4.15;;;1.80;;
42104;SDS011;61464;51.472;5.712;2022-09-21T11:03:58;3.78;;;1.75;;
42104;SDS011;61464;51.472;5.712;2022-09-21T11:09:08;4.78;;;1.60;;
42104;SDS011;61464;51.472;5.712;2022-09-21T11:12:02;6.03;;;1.75;;
42104;SDS011;61464;51.472;5.712;2022-09-21T11:14:55;6.40;;;1.67;;
42104;SDS011;61464;51.472;5.712;2022-09-21T11:23:48;6.22;;;1.70;;
42104;SDS011;61464;51.472;5.712;2022-09-21T11:29:20;2.97;;;1.35;;
42104;SDS011;61464;51.472;5.712;2022-09-21T11:32:06;3.50;;;1.58;;
42104;SDS011;61464;51.472;5.712;2022-09-21T11:34:44;3.70;;;1.60;;
42104;SDS011;61464;51.472;5.712;2022-09-21T11:40:48;5.15;;;1.55;;
42104;SDS011;61464;51.472;5.712;2022-09-21T11:43:43;4.60;;;1.73;;
42104;SDS011;61464;51.472;5.712;2022-09-21T12:01:08;3.35;;;1.67;;
42104;SDS011;61464;51.472;5.712;2022-09-21T12:04:19;2.60;;;1.63;;
42104;SDS011;61464;51.472;5.712;2022-09-21T12:10:43;8.10;;;2.30;;
42104;SDS011;61464;51.472;5.712;2022-09-21T12:16:59;3.30;;;1.80;;
42104;SDS011;61464;51.472;5.712;2022-09-21T12:22:23;5.30;;;2.30;;
42104;SDS011;61464;51.472;5.712;2022-09-21T12:24:58;6.57;;;2.22;;
42104;SDS011;61464;51.472;5.712;2022-09-21T12:27:41;7.28;;;3.25;;
42104;SDS011;61464;51.472;5.712;2022-09-21T12:30:26;8.05;;;3.63;;
42104;SDS011;61464;51.472;5.712;2022-09-21T12:35:58;7.20;;;3.85;;
42104;SDS011;61464;51.472;5.712;2022-09-21T12:38:47;9.60;;;4.43;;
42104;SDS011;61464;51.472;5.712;2022-09-21T12:41:23;14.38;;;6.20;;
42104;SDS011;61464;51.472;5.712;2022-09-21T12:47:15;8.57;;;5.63;;
42104;SDS011;61464;51.472;5.712;2022-09-21T12:50:19;9.23;;;5.00;;
42104;SDS011;61464;51.472;5.712;2022-09-21T12:53:20;8.98;;;4.90;;
42104;SDS011;61464;51.472;5.712;2022-09-21T12:55:55;13.88;;;5.05;;
42104;SDS011;61464;51.472;5.712;2022-09-21T12:58:47;12.00;;;4.32;;
42104;SDS011;61464;51.472;5.712;2022-09-21T13:01:41;9.82;;;4.95;;
42104;SDS011;61464;51.472;5.712;2022-09-21T13:04:26;11.50;;;4.70;;
42104;SDS011;61464;51.472;5.712;2022-09-21T13:10:35;9.80;;;4.55;;
42104;SDS011;61464;51.472;5.712;2022-09-21T13:13:06;7.82;;;4.60;;
42104;SDS011;61464;51.472;5.712;2022-09-21T13:15:49;7.38;;;5.45;;
42104;SDS011;61464;51.472;5.712;2022-09-21T13:20:51;7.72;;;4.00;;
42104;SDS011;61464;51.472;5.712;2022-09-21T13:23:26;7.00;;;3.97;;
42104;SDS011;61464;51.472;5.712;2022-09-21T13:26:05;10.98;;;4.20;;
42104;SDS011;61464;51.472;5.712;2022-09-21T13:28:58;11.77;;;4.13;;
42104;SDS011;61464;51.472;5.712;2022-09-21T13:34:36;8.45;;;3.42;;
42104;SDS011;61464;51.472;5.712;2022-09-21T13:44:57;7.40;;;3.15;;
42104;SDS011;61464;51.472;5.712;2022-09-21T13:47:40;8.60;;;3.58;;
42104;SDS011;61464;51.472;5.712;2022-09-21T13:50:25;8.67;;;3.00;;
42104;SDS011;61464;51.472;5.712;2022-09-21T13:53:13;7.85;;;3.72;;
42104;SDS011;61464;51.472;5.712;2022-09-21T13:56:01;6.07;;;2.90;;
42104;SDS011;61464;51.472;5.712;2022-09-21T13:58:45;9.27;;;3.42;;
42104;SDS011;61464;51.472;5.712;2022-09-21T14:03:56;6.57;;;2.97;;
42104;SDS011;61464;51.472;5.712;2022-09-21T14:06:29;6.38;;;2.85;;
42104;SDS011;61464;51.472;5.712;2022-09-21T14:11:36;7.22;;;3.15;;
42104;SDS011;61464;51.472;5.712;2022-09-21T14:22:31;15.90;;;3.90;;
42104;SDS011;61464;51.472;5.712;2022-09-21T14:24:46;7.70;;;3.22;;
42104;SDS011;61464;51.472;5.712;2022-09-21T14:27:42;6.10;;;3.00;;
42104;SDS011;61464;51.472;5.712;2022-09-21T14:32:45;8.65;;;3.15;;
42104;SDS011;61464;51.472;5.712;2022-09-21T14:35:24;10.23;;;3.05;;
42104;SDS011;61464;51.472;5.712;2022-09-21T14:37:57;7.53;;;2.70;;
42104;SDS011;61464;51.472;5.712;2022-09-21T14:40:35;7.93;;;2.80;;
42104;SDS011;61464;51.472;5.712;2022-09-21T14:43:07;8.55;;;2.75;;
42104;SDS011;61464;51.472;5.712;2022-09-21T15:00:19;6.25;;;2.50;;
42104;SDS011;61464;51.472;5.712;2022-09-21T15:03:15;6.30;;;2.45;;
42104;SDS011;61464;51.472;5.712;2022-09-21T15:12:42;5.55;;;2.30;;
42104;SDS011;61464;51.472;5.712;2022-09-21T15:15:39;4.35;;;2.60;;
42104;SDS011;61464;51.472;5.712;2022-09-21T15:18:43;7.03;;;2.97;;
42104;SDS011;61464;51.472;5.712;2022-09-21T15:21:20;7.13;;;2.72;;
42104;SDS011;61464;51.472;5.712;2022-09-21T15:23:54;4.88;;;2.67;;
42104;SDS011;61464;51.472;5.712;2022-09-21T15:26:25;4.90;;;3.28;;
42104;SDS011;61464;51.472;5.712;2022-09-21T15:28:57;5.05;;;3.28;;
42104;SDS011;61464;51.472;5.712;2022-09-21T15:31:33;5.60;;;3.40;;
42104;SDS011;61464;51.472;5.712;2022-09-21T15:34:05;6.22;;;3.00;;
42104;SDS011;61464;51.472;5.712;2022-09-21T15:36:36;6.30;;;2.88;;
42104;SDS011;61464;51.472;5.712;2022-09-21T15:39:05;6.15;;;2.60;;
42104;SDS011;61464;51.472;5.712;2022-09-21T15:41:45;6.95;;;2.75;;
42104;SDS011;61464;51.472;5.712;2022-09-21T15:44:15;5.28;;;2.70;;
42104;SDS011;61464;51.472;5.712;2022-09-21T15:46:46;6.47;;;2.67;;
42104;SDS011;61464;51.472;5.712;2022-09-21T15:49:24;5.20;;;2.33;;
42104;SDS011;61464;51.472;5.712;2022-09-21T15:52:16;5.50;;;2.50;;
42104;SDS011;61464;51.472;5.712;2022-09-21T15:54:53;6.00;;;2.35;;
42104;SDS011;61464;51.472;5.712;2022-09-21T15:57:45;8.13;;;2.35;;
42104;SDS011;61464;51.472;5.712;2022-09-21T16:02:39;5.53;;;2.72;;
42104;SDS011;61464;51.472;5.712;2022-09-21T16:05:15;7.85;;;2.92;;
42104;SDS011;61464;51.472;5.712;2022-09-21T16:07:45;5.00;;;2.53;;
42104;SDS011;61464;51.472;5.712;2022-09-21T16:13:09;8.07;;;2.50;;
42104;SDS011;61464;51.472;5.712;2022-09-21T16:16:04;6.00;;;2.30;;
42104;SDS011;61464;51.472;5.712;2022-09-21T16:21:25;7.28;;;2.80;;
42104;SDS011;61464;51.472;5.712;2022-09-21T16:23:54;10.80;;;3.33;;
42104;SDS011;61464;51.472;5.712;2022-09-21T16:26:27;6.75;;;2.22;;
42104;SDS011;61464;51.472;5.712;2022-09-21T16:31:40;11.27;;;2.70;;
42104;SDS011;61464;51.472;5.712;2022-09-21T16:39:48;5.90;;;2.53;;
42104;SDS011;61464;51.472;5.712;2022-09-21T16:42:18;6.80;;;2.80;;
42104;SDS011;61464;51.472;5.712;2022-09-21T16:44:46;5.03;;;2.10;;
42104;SDS011;61464;51.472;5.712;2022-09-21T16:47:14;5.82;;;2.30;;
42104;SDS011;61464;51.472;5.712;2022-09-21T16:49:52;4.13;;;2.22;;
42104;SDS011;61464;51.472;5.712;2022-09-21T16:52:26;4.47;;;2.47;;
42104;SDS011;61464;51.472;5.712;2022-09-21T16:54:54;6.10;;;2.30;;
42104;SDS011;61464;51.472;5.712;2022-09-21T16:57:21;5.93;;;2.42;;
42104;SDS011;61464;51.472;5.712;2022-09-21T16:59:48;9.60;;;2.40;;
42104;SDS011;61464;51.472;5.712;2022-09-21T17:02:15;8.30;;;2.33;;
42104;SDS011;61464;51.472;5.712;2022-09-21T17:04:42;4.28;;;2.88;;
42104;SDS011;61464;51.472;5.712;2022-09-21T17:07:12;8.30;;;2.70;;
42104;SDS011;61464;51.472;5.712;2022-09-21T17:09:40;3.45;;;2.40;;
42104;SDS011;61464;51.472;5.712;2022-09-21T17:12:10;6.20;;;2.50;;
42104;SDS011;61464;51.472;5.712;2022-09-21T17:14:38;5.68;;;2.60;;
42104;SDS011;61464;51.472;5.712;2022-09-21T17:17:11;10.38;;;2.95;;
42104;SDS011;61464;51.472;5.712;2022-09-21T17:19:46;7.28;;;3.25;;
42104;SDS011;61464;51.472;5.712;2022-09-21T17:22:14;8.18;;;3.33;;
42104;SDS011;61464;51.472;5.712;2022-09-21T17:24:42;7.65;;;3.40;;
42104;SDS011;61464;51.472;5.712;2022-09-21T17:27:23;9.82;;;4.38;;
42104;SDS011;61464;51.472;5.712;2022-09-21T17:29:50;6.30;;;4.00;;
42104;SDS011;61464;51.472;5.712;2022-09-21T17:32:19;7.50;;;3.60;;
42104;SDS011;61464;51.472;5.712;2022-09-21T17:34:56;10.30;;;4.53;;
42104;SDS011;61464;51.472;5.712;2022-09-21T17:37:36;6.05;;;4.38;;
42104;SDS011;61464;51.472;5.712;2022-09-21T17:40:02;10.45;;;4.93;;
42104;SDS011;61464;51.472;5.712;2022-09-21T17:42:29;8.45;;;4.95;;
42104;SDS011;61464;51.472;5.712;2022-09-21T17:48:03;6.13;;;4.05;;
42104;SDS011;61464;51.472;5.712;2022-09-21T17:50:29;6.53;;;4.20;;
42104;SDS011;61464;51.472;5.712;2022-09-21T17:52:57;9.35;;;4.40;;
42104;SDS011;61464;51.472;5.712;2022-09-21T17:55:43;15.15;;;5.40;;
42104;SDS011;61464;51.472;5.712;2022-09-21T17:58:37;8.60;;;5.07;;
42104;SDS011;61464;51.472;5.712;2022-09-21T18:01:23;8.85;;;4.85;;
42104;SDS011;61464;51.472;5.712;2022-09-21T18:03:53;9.05;;;4.70;;
42104;SDS011;61464;51.472;5.712;2022-09-21T18:06:19;10.40;;;5.40;;
42104;SDS011;61464;51.472;5.712;2022-09-21T18:08:46;9.93;;;5.60;;
42104;SDS011;61464;51.472;5.712;2022-09-21T18:11:28;8.93;;;6.43;;
42104;SDS011;61464;51.472;5.712;2022-09-21T18:17:56;9.80;;;7.10;;
42104;SDS011;61464;51.472;5.712;2022-09-21T18:23:49;10.27;;;6.45;;
42104;SDS011;61464;51.472;5.712;2022-09-21T18:26:32;12.55;;;7.22;;
42104;SDS011;61464;51.472;5.712;2022-09-21T18:28:59;13.30;;;7.47;;
42104;SDS011;61464;51.472;5.712;2022-09-21T18:31:44;12.13;;;7.75;;
42104;SDS011;61464;51.472;5.712;2022-09-21T18:43:17;13.85;;;7.25;;
42104;SDS011;61464;51.472;5.712;2022-09-21T18:45:56;15.52;;;7.60;;
42104;SDS011;61464;51.472;5.712;2022-09-21T18:54:22;11.90;;;7.82;;
42104;SDS011;61464;51.472;5.712;2022-09-21T18:56:51;11.82;;;8.68;;
42104;SDS011;61464;51.472;5.712;2022-09-21T18:59:18;12.55;;;8.93;;
42104;SDS011;61464;51.472;5.712;2022-09-21T19:01:45;20.45;;;9.88;;
42104;SDS011;61464;51.472;5.712;2022-09-21T19:04:12;14.15;;;8.55;;
42104;SDS011;61464;51.472;5.712;2022-09-21T19:12:48;13.77;;;9.30;;
42104;SDS011;61464;51.472;5.712;2022-09-21T19:15:38;11.27;;;9.77;;
42104;SDS011;61464;51.472;5.712;2022-09-21T19:18:32;16.50;;;12.48;;